sensor_id;sensor_type;location;lat;lon;timestamp;pressure;altitude;pressure_sealevel;temperature;humidity
77574;BME280;66710;48.868;9.080;2023-02-15T00:01:39;99348.06;;;-0.73;86.35
77574;BME280;66710;48.868;9.080;2023-02-15T00:04:05;99353.22;;;-0.80;86.22
77574;BME280;66710;48.868;9.080;2023-02-15T00:06:31;99357.41;;;-0.69;87.81
77574;BME280;66710;48.868;9.080;2023-02-15T00:08:56;99354.25;;;-0.73;87.80
77574;BME280;66710;48.868;9.080;2023-02-15T00:11:22;99346.72;;;-0.61;88.78
77574;BME280;66710;48.868;9.080;2023-02-15T00:14:09;99337.19;;;-0.64;89.09
77574;BME280;66710;48.868;9.080;2023-02-15T00:16:35;99339.72;;;-0.70;89.68
77574;BME280;66710;48.868;9.080;2023-02-15T00:19:01;99329.34;;;-0.73;88.91
77574;BME280;66710;48.868;9.080;2023-02-15T00:21:28;99325.47;;;-0.71;88.54
77574;BME280;66710;48.868;9.080;2023-02-15T00:23:55;99331.34;;;-0.75;88.78
77574;BME280;66710;48.868;9.080;2023-02-15T00:26:20;99332.19;;;-0.67;88.85
77574;BME280;66710;48.868;9.080;2023-02-15T00:28:46;99328.66;;;-0.67;88.58
77574;BME280;66710;48.868;9.080;2023-02-15T00:31:12;99329.00;;;-0.70;88.38
77574;BME280;66710;48.868;9.080;2023-02-15T00:33:38;99326.31;;;-0.79;88.13
77574;BME280;66710;48.868;9.080;2023-02-15T00:36:08;99321.81;;;-0.78;88.75
77574;BME280;66710;48.868;9.080;2023-02-15T00:38:34;99325.66;;;-0.81;88.01
77574;BME280;66710;48.868;9.080;2023-02-15T00:41:02;99323.16;;;-0.82;87.34
77574;BME280;66710;48.868;9.080;2023-02-15T00:43:29;99333.19;;;-0.84;88.77
77574;BME280;66710;48.868;9.080;2023-02-15T00:45:55;99333.19;;;-0.84;87.78
77574;BME280;66710;48.868;9.080;2023-02-15T00:48:21;99336.97;;;-1.11;86.74
77574;BME280;66710;48.868;9.080;2023-02-15T00:50:52;99348.16;;;-1.16;85.62
77574;BME280;66710;48.868;9.080;2023-02-15T00:53:17;99334.06;;;-1.43;84.47
77574;BME280;66710;48.868;9.080;2023-02-15T00:55:43;99332.69;;;-1.55;85.12
77574;BME280;66710;48.868;9.080;2023-02-15T00:58:09;99335.16;;;-1.54;85.04
77574;BME280;66710;48.868;9.080;2023-02-15T01:00:35;99330.13;;;-1.65;85.82
77574;BME280;66710;48.868;9.080;2023-02-15T01:03:01;99324.63;;;-1.63;85.90
77574;BME280;66710;48.868;9.080;2023-02-15T01:05:26;99327.97;;;-1.61;85.51
77574;BME280;66710;48.868;9.080;2023-02-15T01:07:52;99335.31;;;-1.63;84.42
77574;BME280;66710;48.868;9.080;2023-02-15T01:10:17;99327.00;;;-1.95;85.44
77574;BME280;66710;48.868;9.080;2023-02-15T01:12:43;99328.88;;;-1.87;85.20
77574;BME280;66710;48.868;9.080;2023-02-15T01:15:09;99331.59;;;-2.05;85.27
77574;BME280;66710;48.868;9.080;2023-02-15T01:17:34;99329.63;;;-2.03;85.58
77574;BME280;66710;48.868;9.080;2023-02-15T01:20:00;99330.03;;;-1.89;85.82
77574;BME280;66710;48.868;9.080;2023-02-15T01:22:25;99334.38;;;-1.88;87.66
77574;BME280;66710;48.868;9.080;2023-02-15T01:24:51;99330.47;;;-2.02;88.91
77574;BME280;66710;48.868;9.080;2023-02-15T01:27:16;99330.38;;;-1.84;89.09
77574;BME280;66710;48.868;9.080;2023-02-15T01:29:42;99332.84;;;-1.91;88.84
77574;BME280;66710;48.868;9.080;2023-02-15T01:32:08;99336.88;;;-1.87;89.32
77574;BME280;66710;48.868;9.080;2023-02-15T01:34:33;99338.31;;;-2.01;89.77
77574;BME280;66710;48.868;9.080;2023-02-15T01:36:59;99341.06;;;-1.84;88.82
77574;BME280;66710;48.868;9.080;2023-02-15T01:39:24;99337.56;;;-1.85;89.38
77574;BME280;66710;48.868;9.080;2023-02-15T01:41:50;99331.38;;;-1.85;90.30
77574;BME280;66710;48.868;9.080;2023-02-15T01:44:45;99335.50;;;-1.99;90.68
77574;BME280;66710;48.868;9.080;2023-02-15T01:47:14;99331.59;;;-2.05;89.43
77574;BME280;66710;48.868;9.080;2023-02-15T01:49:42;99321.53;;;-1.85;90.51
77574;BME280;66710;48.868;9.080;2023-02-15T01:52:10;99320.97;;;-1.97;91.23
77574;BME280;66710;48.868;9.080;2023-02-15T01:54:38;99320.47;;;-2.00;91.11
77574;BME280;66710;48.868;9.080;2023-02-15T01:57:10;99319.81;;;-1.94;90.74
77574;BME280;66710;48.868;9.080;2023-02-15T01:59:39;99313.88;;;-1.80;90.65
77574;BME280;66710;48.868;9.080;2023-02-15T02:02:09;99316.50;;;-1.88;90.36
77574;BME280;66710;48.868;9.080;2023-02-15T02:04:45;99317.50;;;-1.89;90.36
77574;BME280;66710;48.868;9.080;2023-02-15T02:07:14;99314.31;;;-1.93;90.31
77574;BME280;66710;48.868;9.080;2023-02-15T02:09:41;99322.06;;;-1.73;89.87
77574;BME280;66710;48.868;9.080;2023-02-15T02:12:07;99314.31;;;-1.93;89.89
77574;BME280;66710;48.868;9.080;2023-02-15T02:14:33;99322.16;;;-1.91;89.90
77574;BME280;66710;48.868;9.080;2023-02-15T02:17:09;99327.34;;;-1.89;91.16
77574;BME280;66710;48.868;9.080;2023-02-15T02:36:57;99305.88;;;-1.72;91.07
77574;BME280;66710;48.868;9.080;2023-02-15T02:39:44;99314.41;;;-1.68;90.84
77574;BME280;66710;48.868;9.080;2023-02-15T02:42:33;99304.31;;;-1.48;90.44
77574;BME280;66710;48.868;9.080;2023-02-15T02:45:07;99297.41;;;-1.67;90.79
77574;BME280;66710;48.868;9.080;2023-02-15T02:50:13;99303.72;;;-1.76;90.06
77574;BME280;66710;48.868;9.080;2023-02-15T02:52:45;99302.03;;;-1.77;91.29
77574;BME280;66710;48.868;9.080;2023-02-15T02:55:15;99299.38;;;-1.77;91.36
77574;BME280;66710;48.868;9.080;2023-02-15T02:57:55;99295.38;;;-1.73;90.57
77574;BME280;66710;48.868;9.080;2023-02-15T03:00:25;99282.53;;;-1.69;91.78
77574;BME280;66710;48.868;9.080;2023-02-15T03:03:00;99281.38;;;-1.67;92.02
77574;BME280;66710;48.868;9.080;2023-02-15T03:05:32;99279.22;;;-1.63;92.08
77574;BME280;66710;48.868;9.080;2023-02-15T03:08:00;99289.75;;;-1.62;91.50
77574;BME280;66710;48.868;9.080;2023-02-15T03:10:31;99292.59;;;-1.98;90.90
77574;BME280;66710;48.868;9.080;2023-02-15T03:12:57;99292.34;;;-2.13;92.15
77574;BME280;66710;48.868;9.080;2023-02-15T03:15:27;99283.13;;;-1.92;92.41
77574;BME280;66710;48.868;9.080;2023-02-15T03:18:16;99285.69;;;-1.74;91.97
77574;BME280;66710;48.868;9.080;2023-02-15T03:20:44;99292.25;;;-2.03;90.79
77574;BME280;66710;48.868;9.080;2023-02-15T03:23:13;99278.00;;;-1.77;91.86
77574;BME280;66710;48.868;9.080;2023-02-15T03:25:49;99284.34;;;-1.78;91.32
77574;BME280;66710;48.868;9.080;2023-02-15T03:28:19;99283.44;;;-1.95;91.39
77574;BME280;66710;48.868;9.080;2023-02-15T03:30:49;99285.63;;;-2.25;92.12
77574;BME280;66710;48.868;9.080;2023-02-15T03:33:17;99285.41;;;-2.32;92.12
77574;BME280;66710;48.868;9.080;2023-02-15T03:35:49;99283.91;;;-2.34;92.61
77574;BME280;66710;48.868;9.080;2023-02-15T03:38:22;99284.25;;;-2.03;91.94
77574;BME280;66710;48.868;9.080;2023-02-15T03:40:53;99290.72;;;-2.05;92.26
77574;BME280;66710;48.868;9.080;2023-02-15T03:43:52;99297.28;;;-2.26;91.97
77574;BME280;66710;48.868;9.080;2023-02-15T03:46:37;99284.25;;;-2.03;92.03
77574;BME280;66710;48.868;9.080;2023-02-15T03:49:11;99285.75;;;-2.00;92.89
77574;BME280;66710;48.868;9.080;2023-02-15T03:51:40;99290.13;;;-1.91;92.41
77574;BME280;66710;48.868;9.080;2023-02-15T03:54:10;99291.81;;;-1.82;92.46
77574;BME280;66710;48.868;9.080;2023-02-15T03:56:39;99296.38;;;-1.74;91.71
77574;BME280;66710;48.868;9.080;2023-02-15T03:59:06;99283.13;;;-1.84;91.47
77574;BME280;66710;48.868;9.080;2023-02-15T04:04:36;99294.16;;;-1.87;92.33
77574;BME280;66710;48.868;9.080;2023-02-15T04:07:04;99291.59;;;-1.97;91.93
77574;BME280;66710;48.868;9.080;2023-02-15T04:09:30;99295.47;;;-1.91;92.22
77574;BME280;66710;48.868;9.080;2023-02-15T04:12:13;99293.81;;;-1.84;91.75
77574;BME280;66710;48.868;9.080;2023-02-15T04:14:39;99291.44;;;-1.95;92.22
77574;BME280;66710;48.868;9.080;2023-02-15T04:17:23;99287.38;;;-2.07;92.10
77574;BME280;66710;48.868;9.080;2023-02-15T04:19:48;99293.56;;;-2.07;91.73
77574;BME280;66710;48.868;9.080;2023-02-15T04:22:32;99276.88;;;-2.09;92.13
77574;BME280;66710;48.868;9.080;2023-02-15T04:25:16;99276.56;;;-2.06;93.04
77574;BME280;66710;48.868;9.080;2023-02-15T04:27:44;99276.09;;;-1.93;92.18
77574;BME280;66710;48.868;9.080;2023-02-15T04:30:11;99272.09;;;-1.89;92.29
77574;BME280;66710;48.868;9.080;2023-02-15T04:32:37;99275.78;;;-1.90;91.82
77574;BME280;66710;48.868;9.080;2023-02-15T04:35:04;99269.94;;;-1.94;91.21
77574;BME280;66710;48.868;9.080;2023-02-15T04:37:31;99263.91;;;-1.96;91.21
77574;BME280;66710;48.868;9.080;2023-02-15T04:39:56;99260.91;;;-2.01;90.85
77574;BME280;66710;48.868;9.080;2023-02-15T04:42:26;99258.22;;;-2.01;90.67
77574;BME280;66710;48.868;9.080;2023-02-15T04:44:52;99265.88;;;-1.98;91.74
77574;BME280;66710;48.868;9.080;2023-02-15T04:47:18;99261.53;;;-2.07;91.34
77574;BME280;66710;48.868;9.080;2023-02-15T04:49:43;99261.81;;;-2.10;92.09
77574;BME280;66710;48.868;9.080;2023-02-15T04:52:09;99253.34;;;-2.05;91.84
77574;BME280;66710;48.868;9.080;2023-02-15T04:54:34;99259.50;;;-2.13;91.75
77574;BME280;66710;48.868;9.080;2023-02-15T04:56:59;99262.50;;;-2.69;91.61
77574;BME280;66710;48.868;9.080;2023-02-15T04:59:25;99262.06;;;-2.30;91.75
77574;BME280;66710;48.868;9.080;2023-02-15T05:01:50;99254.41;;;-2.24;91.62
77574;BME280;66710;48.868;9.080;2023-02-15T05:04:16;99258.25;;;-2.27;91.99
77574;BME280;66710;48.868;9.080;2023-02-15T05:06:41;99257.50;;;-2.11;91.82
77574;BME280;66710;48.868;9.080;2023-02-15T05:09:06;99256.09;;;-2.23;91.74
77574;BME280;66710;48.868;9.080;2023-02-15T05:11:32;99262.47;;;-2.16;91.51
77574;BME280;66710;48.868;9.080;2023-02-15T05:13:57;99257.59;;;-2.29;92.45
77574;BME280;66710;48.868;9.080;2023-02-15T05:16:23;99266.03;;;-2.07;91.53
77574;BME280;66710;48.868;9.080;2023-02-15T05:18:48;99253.97;;;-2.20;91.43
77574;BME280;66710;48.868;9.080;2023-02-15T05:21:14;99264.38;;;-2.00;91.46
77574;BME280;66710;48.868;9.080;2023-02-15T05:23:41;99257.44;;;-2.27;90.56
77574;BME280;66710;48.868;9.080;2023-02-15T05:26:12;99262.00;;;-2.12;91.64
77574;BME280;66710;48.868;9.080;2023-02-15T05:28:59;99259.97;;;-2.18;91.57
77574;BME280;66710;48.868;9.080;2023-02-15T05:31:24;99256.19;;;-2.07;91.74
77574;BME280;66710;48.868;9.080;2023-02-15T05:33:49;99255.09;;;-2.22;90.91
77574;BME280;66710;48.868;9.080;2023-02-15T05:36:15;99245.44;;;-2.23;90.50
77574;BME280;66710;48.868;9.080;2023-02-15T05:38:40;99257.00;;;-2.15;90.85
77574;BME280;66710;48.868;9.080;2023-02-15T05:41:06;99259.72;;;-2.06;90.78
77574;BME280;66710;48.868;9.080;2023-02-15T05:43:32;99257.97;;;-2.16;90.75
77574;BME280;66710;48.868;9.080;2023-02-15T05:45:57;99262.44;;;-2.24;90.77
77574;BME280;66710;48.868;9.080;2023-02-15T05:48:25;99270.78;;;-2.27;90.82
77574;BME280;66710;48.868;9.080;2023-02-15T05:50:58;99262.59;;;-2.26;90.91
77574;BME280;66710;48.868;9.080;2023-02-15T05:53:25;99262.78;;;-2.27;90.95
77574;BME280;66710;48.868;9.080;2023-02-15T05:55:50;99258.41;;;-2.29;91.01
77574;BME280;66710;48.868;9.080;2023-02-15T05:58:16;99250.94;;;-2.25;90.92
77574;BME280;66710;48.868;9.080;2023-02-15T06:00:41;99260.34;;;-2.39;90.30
77574;BME280;66710;48.868;9.080;2023-02-15T06:03:06;99255.66;;;-2.45;91.01
77574;BME280;66710;48.868;9.080;2023-02-15T06:05:31;99265.28;;;-2.52;91.06
77574;BME280;66710;48.868;9.080;2023-02-15T06:07:57;99259.97;;;-2.52;91.50
77574;BME280;66710;48.868;9.080;2023-02-15T06:10:22;99263.91;;;-2.56;90.76
77574;BME280;66710;48.868;9.080;2023-02-15T06:12:47;99261.72;;;-2.61;92.15
77574;BME280;66710;48.868;9.080;2023-02-15T06:15:13;99268.00;;;-2.44;92.04
77574;BME280;66710;48.868;9.080;2023-02-15T06:17:41;99268.16;;;-2.45;92.37
77574;BME280;66710;48.868;9.080;2023-02-15T06:20:07;99262.41;;;-2.59;92.31
77574;BME280;66710;48.868;9.080;2023-02-15T06:22:33;99279.19;;;-2.40;92.52
77574;BME280;66710;48.868;9.080;2023-02-15T06:24:59;99270.81;;;-2.45;92.28
77574;BME280;66710;48.868;9.080;2023-02-15T06:27:24;99276.66;;;-2.42;92.08
77574;BME280;66710;48.868;9.080;2023-02-15T06:29:49;99283.25;;;-2.54;91.94
77574;BME280;66710;48.868;9.080;2023-02-15T06:32:15;99284.78;;;-2.52;92.30
77574;BME280;66710;48.868;9.080;2023-02-15T06:34:40;99293.13;;;-2.73;93.18
77574;BME280;66710;48.868;9.080;2023-02-15T06:37:05;99282.81;;;-2.50;93.40
77574;BME280;66710;48.868;9.080;2023-02-15T06:39:33;99285.94;;;-2.28;92.92
77574;BME280;66710;48.868;9.080;2023-02-15T06:41:58;99282.50;;;-2.46;92.26
77574;BME280;66710;48.868;9.080;2023-02-15T06:44:24;99282.28;;;-2.53;92.76
77574;BME280;66710;48.868;9.080;2023-02-15T06:46:49;99285.63;;;-2.25;92.91
77574;BME280;66710;48.868;9.080;2023-02-15T06:49:14;99280.97;;;-2.49;91.36
77574;BME280;66710;48.868;9.080;2023-02-15T06:51:40;99286.34;;;-2.41;92.01
77574;BME280;66710;48.868;9.080;2023-02-15T06:54:05;99292.63;;;-2.50;92.39
77574;BME280;66710;48.868;9.080;2023-02-15T06:56:30;99289.78;;;-2.22;92.00
77574;BME280;66710;48.868;9.080;2023-02-15T06:58:56;99293.34;;;-2.14;91.63
77574;BME280;66710;48.868;9.080;2023-02-15T07:01:21;99290.81;;;-2.23;91.88
77574;BME280;66710;48.868;9.080;2023-02-15T07:03:46;99293.38;;;-2.40;90.52
77574;BME280;66710;48.868;9.080;2023-02-15T07:06:12;99299.03;;;-2.43;92.24
77574;BME280;66710;48.868;9.080;2023-02-15T07:08:38;99294.00;;;-2.46;91.51
77574;BME280;66710;48.868;9.080;2023-02-15T07:11:05;99301.09;;;-2.55;91.82
77574;BME280;66710;48.868;9.080;2023-02-15T07:13:50;99302.94;;;-2.55;91.47
77574;BME280;66710;48.868;9.080;2023-02-15T07:16:17;99308.94;;;-2.53;92.20
77574;BME280;66710;48.868;9.080;2023-02-15T07:18:43;99314.44;;;-2.29;91.78
77574;BME280;66710;48.868;9.080;2023-02-15T07:21:08;99313.19;;;-2.16;91.94
77574;BME280;66710;48.868;9.080;2023-02-15T07:23:35;99313.41;;;-2.36;92.32
77574;BME280;66710;48.868;9.080;2023-02-15T07:26:01;99310.53;;;-2.42;92.36
77574;BME280;66710;48.868;9.080;2023-02-15T07:28:28;99301.53;;;-2.41;92.47
77574;BME280;66710;48.868;9.080;2023-02-15T07:30:53;99312.72;;;-2.38;92.23
77574;BME280;66710;48.868;9.080;2023-02-15T07:33:19;99306.91;;;-2.33;91.83
77574;BME280;66710;48.868;9.080;2023-02-15T07:35:54;99302.94;;;-2.55;91.69
77574;BME280;66710;48.868;9.080;2023-02-15T07:38:20;99306.59;;;-2.30;92.05
77574;BME280;66710;48.868;9.080;2023-02-15T07:40:46;99302.38;;;-2.15;91.56
77574;BME280;66710;48.868;9.080;2023-02-15T07:43:11;99302.66;;;-2.18;91.45
77574;BME280;66710;48.868;9.080;2023-02-15T07:45:37;99303.50;;;-2.17;91.26
77574;BME280;66710;48.868;9.080;2023-02-15T07:48:04;99295.44;;;-1.99;90.72
77574;BME280;66710;48.868;9.080;2023-02-15T07:50:30;99300.34;;;-1.86;90.62
77574;BME280;66710;48.868;9.080;2023-02-15T07:52:56;99294.34;;;-1.80;90.66
77574;BME280;66710;48.868;9.080;2023-02-15T07:55:21;99301.97;;;-1.94;90.44
77574;BME280;66710;48.868;9.080;2023-02-15T07:57:48;99307.69;;;-1.80;90.50
77574;BME280;66710;48.868;9.080;2023-02-15T08:00:16;99316.44;;;-2.04;90.01
77574;BME280;66710;48.868;9.080;2023-02-15T08:02:47;99315.56;;;-2.13;89.84
77574;BME280;66710;48.868;9.080;2023-02-15T08:05:12;99313.47;;;-2.27;90.33
77574;BME280;66710;48.868;9.080;2023-02-15T08:07:38;99307.47;;;-2.48;91.67
77574;BME280;66710;48.868;9.080;2023-02-15T08:10:04;99303.19;;;-2.14;92.14
77574;BME280;66710;48.868;9.080;2023-02-15T08:12:29;99305.94;;;-1.98;91.47
77574;BME280;66710;48.868;9.080;2023-02-15T08:14:55;99306.97;;;-2.25;90.98
77574;BME280;66710;48.868;9.080;2023-02-15T08:17:20;99315.13;;;-2.00;91.76
77574;BME280;66710;48.868;9.080;2023-02-15T08:19:45;99312.69;;;-2.20;91.08
77574;BME280;66710;48.868;9.080;2023-02-15T08:22:13;99310.97;;;-2.29;91.50
77574;BME280;66710;48.868;9.080;2023-02-15T08:24:39;99307.63;;;-2.31;91.63
77574;BME280;66710;48.868;9.080;2023-02-15T08:27:06;99303.97;;;-1.96;90.86
77574;BME280;66710;48.868;9.080;2023-02-15T08:29:33;99313.88;;;-1.80;91.11
77574;BME280;66710;48.868;9.080;2023-02-15T08:32:05;99311.53;;;-1.83;90.71
77574;BME280;66710;48.868;9.080;2023-02-15T08:34:35;99308.97;;;-1.93;90.98
77574;BME280;66710;48.868;9.080;2023-02-15T08:37:00;99307.69;;;-2.15;91.26
77574;BME280;66710;48.868;9.080;2023-02-15T08:39:26;99308.41;;;-1.70;91.33
77574;BME280;66710;48.868;9.080;2023-02-15T08:41:51;99304.59;;;-1.67;90.28
77574;BME280;66710;48.868;9.080;2023-02-15T08:44:18;99303.06;;;-1.78;90.33
77574;BME280;66710;48.868;9.080;2023-02-15T08:46:45;99293.34;;;-1.20;90.99
77574;BME280;66710;48.868;9.080;2023-02-15T08:49:19;99288.16;;;-1.30;89.67
77574;BME280;66710;48.868;9.080;2023-02-15T08:51:45;99289.66;;;-1.27;89.63
77574;BME280;66710;48.868;9.080;2023-02-15T08:54:14;99288.69;;;-1.10;89.84
77574;BME280;66710;48.868;9.080;2023-02-15T08:56:41;99282.50;;;-1.10;89.02
77574;BME280;66710;48.868;9.080;2023-02-15T08:59:20;99282.66;;;-0.96;90.04
77574;BME280;66710;48.868;9.080;2023-02-15T09:01:46;99287.03;;;-0.94;88.29
77574;BME280;66710;48.868;9.080;2023-02-15T09:04:12;99291.06;;;-0.99;88.61
77574;BME280;66710;48.868;9.080;2023-02-15T09:06:39;99293.84;;;-1.25;89.62
77574;BME280;66710;48.868;9.080;2023-02-15T09:09:06;99288.53;;;-1.00;89.03
77574;BME280;66710;48.868;9.080;2023-02-15T09:11:37;99284.53;;;-0.96;88.63
77574;BME280;66710;48.868;9.080;2023-02-15T09:14:05;99279.69;;;-0.84;89.32
77574;BME280;66710;48.868;9.080;2023-02-15T09:16:33;99287.19;;;-0.71;88.47
77574;BME280;66710;48.868;9.080;2023-02-15T09:18:59;99279.84;;;-0.61;88.56
77574;BME280;66710;48.868;9.080;2023-02-15T09:21:27;99274.28;;;-0.51;87.75
77574;BME280;66710;48.868;9.080;2023-02-15T09:24:02;99272.81;;;-0.54;87.48
77574;BME280;66710;48.868;9.080;2023-02-15T09:26:29;99274.97;;;-0.49;87.25
77574;BME280;66710;48.868;9.080;2023-02-15T09:28:57;99264.09;;;-0.72;87.78
77574;BME280;66710;48.868;9.080;2023-02-15T09:31:26;99266.59;;;-0.38;87.17
77574;BME280;66710;48.868;9.080;2023-02-15T09:33:53;99260.41;;;-0.39;86.70
77574;BME280;66710;48.868;9.080;2023-02-15T09:36:24;99258.22;;;-0.43;86.64
77574;BME280;66710;48.868;9.080;2023-02-15T09:39:01;99257.56;;;-0.37;86.90
77574;BME280;66710;48.868;9.080;2023-02-15T10:01:00;99253.81;;;0.28;85.70
77574;BME280;66710;48.868;9.080;2023-02-15T10:20:28;99250.94;;;0.30;84.75
77574;BME280;66710;48.868;9.080;2023-02-15T10:23:16;99241.28;;;0.52;83.78
77574;BME280;66710;48.868;9.080;2023-02-15T10:26:12;99241.38;;;1.13;83.99
77574;BME280;66710;48.868;9.080;2023-02-15T10:31:27;99244.69;;;1.68;81.57
77574;BME280;66710;48.868;9.080;2023-02-15T10:34:12;99243.69;;;0.38;83.61
77574;BME280;66710;48.868;9.080;2023-02-15T10:39:44;99234.03;;;1.45;81.29
77574;BME280;66710;48.868;9.080;2023-02-15T10:48:22;99231.25;;;1.53;80.96
77574;BME280;66710;48.868;9.080;2023-02-15T10:50:54;99235.31;;;1.49;81.08
77574;BME280;66710;48.868;9.080;2023-02-15T10:59:26;99223.84;;;1.70;80.08
77574;BME280;66710;48.868;9.080;2023-02-15T11:05:01;99215.56;;;2.16;78.47
77574;BME280;66710;48.868;9.080;2023-02-15T11:07:33;99209.25;;;2.60;78.10
77574;BME280;66710;48.868;9.080;2023-02-15T11:12:45;99198.25;;;2.98;77.99
77574;BME280;66710;48.868;9.080;2023-02-15T11:15:34;99200.41;;;3.66;73.63
77574;BME280;66710;48.868;9.080;2023-02-15T11:23:16;99191.69;;;4.74;70.59
77574;BME280;66710;48.868;9.080;2023-02-15T11:25:52;99187.34;;;5.53;70.62
77574;BME280;66710;48.868;9.080;2023-02-15T11:28:25;99190.59;;;5.88;68.47
77574;BME280;66710;48.868;9.080;2023-02-15T11:30:55;99189.44;;;4.98;68.72
77574;BME280;66710;48.868;9.080;2023-02-15T11:33:26;99179.25;;;4.93;68.39
77574;BME280;66710;48.868;9.080;2023-02-15T11:36:41;99185.03;;;6.35;67.15
77574;BME280;66710;48.868;9.080;2023-02-15T11:38:42;99183.63;;;6.26;65.47
77574;BME280;66710;48.868;9.080;2023-02-15T11:41:11;99182.47;;;7.11;65.95
77574;BME280;66710;48.868;9.080;2023-02-15T11:44:06;99181.31;;;7.25;62.93
77574;BME280;66710;48.868;9.080;2023-02-15T11:46:33;99176.81;;;7.37;64.21
77574;BME280;66710;48.868;9.080;2023-02-15T11:48:58;99176.66;;;7.76;62.15
77574;BME280;66710;48.868;9.080;2023-02-15T11:51:24;99182.84;;;7.83;61.35
77574;BME280;66710;48.868;9.080;2023-02-15T11:53:52;99179.38;;;7.57;62.10
77574;BME280;66710;48.868;9.080;2023-02-15T11:56:21;99180.72;;;7.85;61.08
77574;BME280;66710;48.868;9.080;2023-02-15T12:01:29;99175.06;;;7.25;61.91
77574;BME280;66710;48.868;9.080;2023-02-15T12:04:04;99169.94;;;7.42;62.06
77574;BME280;66710;48.868;9.080;2023-02-15T12:06:34;99165.84;;;9.04;59.83
77574;BME280;66710;48.868;9.080;2023-02-15T12:11:42;99161.50;;;8.72;58.01
77574;BME280;66710;48.868;9.080;2023-02-15T12:14:09;99155.00;;;7.07;61.53
77574;BME280;66710;48.868;9.080;2023-02-15T12:16:50;99148.91;;;8.48;58.48
77574;BME280;66710;48.868;9.080;2023-02-15T12:19:27;99155.19;;;7.74;59.39
77574;BME280;66710;48.868;9.080;2023-02-15T12:21:53;99148.13;;;9.25;57.54
77574;BME280;66710;48.868;9.080;2023-02-15T12:24:32;99150.09;;;8.33;57.64
77574;BME280;66710;48.868;9.080;2023-02-15T12:27:12;99145.97;;;9.03;57.08
77574;BME280;66710;48.868;9.080;2023-02-15T12:29:41;99149.03;;;10.42;53.25
77574;BME280;66710;48.868;9.080;2023-02-15T12:32:16;99148.44;;;9.87;53.20
77574;BME280;66710;48.868;9.080;2023-02-15T12:34:43;99141.09;;;9.88;54.17
77574;BME280;66710;48.868;9.080;2023-02-15T12:37:26;99144.84;;;10.51;51.73
77574;BME280;66710;48.868;9.080;2023-02-15T12:39:59;99141.16;;;9.53;56.37
77574;BME280;66710;48.868;9.080;2023-02-15T12:42:26;99139.50;;;9.52;55.58
77574;BME280;66710;48.868;9.080;2023-02-15T12:47:47;99120.66;;;9.74;54.15
77574;BME280;66710;48.868;9.080;2023-02-15T12:50:32;99123.91;;;10.52;52.26
77574;BME280;66710;48.868;9.080;2023-02-15T12:55:37;99117.59;;;10.97;50.49
77574;BME280;66710;48.868;9.080;2023-02-15T12:58:17;99114.63;;;11.15;50.80
77574;BME280;66710;48.868;9.080;2023-02-15T13:00:43;99110.47;;;11.30;50.11
77574;BME280;66710;48.868;9.080;2023-02-15T13:03:17;99097.31;;;11.44;49.16
77574;BME280;66710;48.868;9.080;2023-02-15T13:05:44;99088.03;;;11.45;49.19
77574;BME280;66710;48.868;9.080;2023-02-15T13:10:41;99097.25;;;11.61;48.80
77574;BME280;66710;48.868;9.080;2023-02-15T13:13:20;99095.69;;;10.75;50.68
77574;BME280;66710;48.868;9.080;2023-02-15T13:15:50;99089.41;;;11.86;49.06
77574;BME280;66710;48.868;9.080;2023-02-15T13:18:28;99078.78;;;12.61;46.83
77574;BME280;66710;48.868;9.080;2023-02-15T13:20:55;99083.56;;;12.22;48.42
77574;BME280;66710;48.868;9.080;2023-02-15T13:23:27;99067.72;;;11.57;50.11
77574;BME280;66710;48.868;9.080;2023-02-15T13:25:55;99078.66;;;11.18;49.09
77574;BME280;66710;48.868;9.080;2023-02-15T13:28:24;99068.50;;;11.53;49.41
77574;BME280;66710;48.868;9.080;2023-02-15T13:30:52;99063.56;;;11.72;50.61
77574;BME280;66710;48.868;9.080;2023-02-15T13:33:25;99061.38;;;11.91;48.83
77574;BME280;66710;48.868;9.080;2023-02-15T13:36:45;99063.41;;;13.62;45.17
77574;BME280;66710;48.868;9.080;2023-02-15T13:41:53;99048.00;;;13.51;45.88
77574;BME280;66710;48.868;9.080;2023-02-15T13:44:52;99050.66;;;12.98;46.07
77574;BME280;66710;48.868;9.080;2023-02-15T13:50:04;99045.16;;;13.36;46.35
77574;BME280;66710;48.868;9.080;2023-02-15T13:52:38;99034.59;;;14.54;43.12
77574;BME280;66710;48.868;9.080;2023-02-15T13:55:46;99041.13;;;13.43;46.00
77574;BME280;66710;48.868;9.080;2023-02-15T13:58:35;99036.94;;;12.61;47.69
77574;BME280;66710;48.868;9.080;2023-02-15T14:04:06;99019.63;;;15.83;40.22
77574;BME280;66710;48.868;9.080;2023-02-15T14:06:54;99028.19;;;12.31;46.86
77574;BME280;66710;48.868;9.080;2023-02-15T14:10:05;99027.22;;;15.06;43.00
77574;BME280;66710;48.868;9.080;2023-02-15T14:15:34;99031.13;;;13.27;46.92
77574;BME280;66710;48.868;9.080;2023-02-15T14:20:44;99024.09;;;13.31;44.83
77574;BME280;66710;48.868;9.080;2023-02-15T14:25:51;99025.31;;;15.01;43.17
77574;BME280;66710;48.868;9.080;2023-02-15T14:28:31;99031.06;;;15.20;41.71
77574;BME280;66710;48.868;9.080;2023-02-15T14:30:59;99027.28;;;13.71;45.26
77574;BME280;66710;48.868;9.080;2023-02-15T14:33:37;99032.72;;;13.18;45.84
77574;BME280;66710;48.868;9.080;2023-02-15T14:36:05;99039.66;;;13.89;45.13
77574;BME280;66710;48.868;9.080;2023-02-15T14:41:35;99033.84;;;12.84;47.05
77574;BME280;66710;48.868;9.080;2023-02-15T14:47:04;99038.13;;;13.45;45.10
77574;BME280;66710;48.868;9.080;2023-02-15T14:49:30;99033.22;;;13.09;47.42
77574;BME280;66710;48.868;9.080;2023-02-15T14:59:35;99030.28;;;14.68;43.77
77574;BME280;66710;48.868;9.080;2023-02-15T15:04:40;99031.03;;;14.28;43.20
77574;BME280;66710;48.868;9.080;2023-02-15T15:07:22;99036.16;;;13.98;43.77
77574;BME280;66710;48.868;9.080;2023-02-15T15:10:03;99030.53;;;15.03;42.63
77574;BME280;66710;48.868;9.080;2023-02-15T15:14:57;99040.53;;;13.94;43.04
77574;BME280;66710;48.868;9.080;2023-02-15T15:20:11;99039.00;;;13.56;44.79
77574;BME280;66710;48.868;9.080;2023-02-15T15:22:39;99034.03;;;14.21;43.33
77574;BME280;66710;48.868;9.080;2023-02-15T15:27:48;99033.13;;;13.32;46.55
77574;BME280;66710;48.868;9.080;2023-02-15T15:35:36;99028.56;;;13.10;45.88
77574;BME280;66710;48.868;9.080;2023-02-15T15:48:51;99030.81;;;11.94;48.84
77574;BME280;66710;48.868;9.080;2023-02-15T15:51:20;99030.53;;;11.73;50.38
77574;BME280;66710;48.868;9.080;2023-02-15T15:53:49;99032.06;;;13.00;47.58
77574;BME280;66710;48.868;9.080;2023-02-15T15:56:33;99036.28;;;11.94;49.21